< Cyclone 201920 2019 Season Cyclone 201926 >
Cyclone 201921 (Wallace)
General InformationTrack Information on Google MapsDetailed Wind InformationList of All Images || ResourceGoogle EarthGE AnimationAtom FeedGeoJSON
Detalied Best Track (Time Zone = UTC)
Year Month Day Hour Lat. Long. Pressure (hPa) Wind (kt) Class Image Chart
2019 4 3 00 -7.4 132.8 1009 20 2 Image --
2019 4 3 06 -7.7 132.2 1004 25 2 Image --
2019 4 3 12 -8.1 133.0 1003 25 2 Image --
2019 4 3 18 -8.5 131.9 1002 25 2 Image --
2019 4 4 00 -9.7 131.0 1002 30 2 Image --
2019 4 4 06 -10.5 130.0 1002 30 2 Image --
2019 4 4 12 -10.5 129.3 1002 30 2 Image --
2019 4 4 18 -11.0 129.0 1001 30 2 Image --
2019 4 5 00 -11.5 128.3 1001 30 2 Image --
2019 4 5 06 -11.7 127.4 1000 30 2 Image --
2019 4 5 12 -11.6 126.2 1000 30 2 Image --
2019 4 5 18 -11.6 125.9 997 40 3 Image --
2019 4 6 00 -11.8 125.1 993 45 3 Image --
2019 4 6 06 -12.1 124.3 992 45 3 Image --
2019 4 6 12 -12.7 123.1 992 45 3 Image --
2019 4 6 18 -12.8 122.0 992 45 3 Image --
2019 4 7 00 -12.9 121.0 990 50 4 Image --
2019 4 7 06 -13.0 119.9 990 50 4 Image --
2019 4 7 12 -13.3 118.8 990 50 4 Image --
2019 4 7 18 -13.8 118.0 990 50 4 Image --
2019 4 8 00 -14.4 117.3 988 55 4 Image --
2019 4 8 06 -15.1 116.5 988 55 4 Image --
2019 4 8 12 -15.7 115.8 983 60 4 Image --
2019 4 8 18 -16.1 115.1 980 65 5 Image --
2019 4 9 00 -16.0 114.6 982 60 4 Image --
2019 4 9 06 -16.1 114.3 988 50 4 Image --
2019 4 9 12 -16.4 113.9 990 45 3 Image --
2019 4 9 18 -16.7 112.8 992 45 3 Image --
2019 4 10 00 -16.7 112.4 997 40 3 Image --
< Cyclone 201920 2019 Season Cyclone 201926 >

Help